createdAt,value
2024-01-24T00:00:34.597Z,101374.44
2024-01-24T00:03:03.583Z,101350.88
2024-01-24T00:05:32.380Z,101363.09
2024-01-24T00:08:00.798Z,101363.97
2024-01-24T00:10:30.815Z,101377.03
2024-01-24T00:12:59.577Z,101369.19
2024-01-24T00:15:28.515Z,101363.06
2024-01-24T00:17:57.214Z,101368.34
2024-01-24T00:20:25.586Z,101367.44
2024-01-24T00:22:54.487Z,101377.03
2024-01-24T00:25:23.125Z,101361.31
2024-01-24T00:27:53.178Z,101362.19
2024-01-24T00:30:22.002Z,101358.69
2024-01-24T00:32:50.431Z,101359.59
2024-01-24T00:35:18.946Z,101357.81
2024-01-24T00:37:47.587Z,101359.56
2024-01-24T00:40:16.541Z,101349.09
2024-01-24T00:42:45.532Z,101343.84
2024-01-24T00:45:15.352Z,101343.81
2024-01-24T00:47:44.071Z,101342.00
2024-01-24T00:50:12.549Z,101327.00
2024-01-24T00:52:41.165Z,101325.97
2024-01-24T00:55:10.007Z,101324.94
2024-01-24T00:57:38.809Z,101325.66
2024-01-24T01:00:09.992Z,101328.19
2024-01-24T01:02:39.992Z,101347.28
2024-01-24T01:05:09.382Z,101335.81
2024-01-24T01:07:37.988Z,101341.84
2024-01-24T01:10:08.168Z,101339.16
2024-01-24T01:12:36.816Z,101319.88
2024-01-24T01:15:06.111Z,101314.53
2024-01-24T01:17:34.836Z,101317.97
2024-01-24T01:20:05.699Z,101319.69
2024-01-24T01:22:34.066Z,101305.63
2024-01-24T01:25:02.413Z,101323.94
2024-01-24T01:27:31.196Z,101312.59
2024-01-24T01:29:59.819Z,101316.88
2024-01-24T01:32:28.611Z,101339.56
2024-01-24T01:34:57.651Z,101307.06
2024-01-24T01:37:27.772Z,101290.41
2024-01-24T01:39:56.464Z,101285.16
2024-01-24T01:42:24.950Z,101282.47
2024-01-24T01:44:53.571Z,101276.31
2024-01-24T01:47:23.506Z,101258.81
2024-01-24T01:49:53.827Z,101280.72
2024-01-24T01:52:23.652Z,101271.97
2024-01-24T01:54:54.197Z,101269.28
2024-01-24T01:57:23.681Z,101284.09
2024-01-24T01:59:52.077Z,101266.50
2024-01-24T02:02:21.108Z,101255.97
2024-01-24T02:04:50.047Z,101264.75
2024-01-24T02:07:18.784Z,101265.56
2024-01-24T02:09:47.594Z,101279.50
2024-01-24T02:12:17.740Z,101257.56
2024-01-24T02:14:46.395Z,101255.84
2024-01-24T02:17:15.011Z,101253.22
2024-01-24T02:19:43.755Z,101254.88
2024-01-24T02:22:12.788Z,101273.22
2024-01-24T02:24:42.677Z,101237.28
2024-01-24T02:27:11.177Z,101250.38
2024-01-24T02:29:39.811Z,101245.13
2024-01-24T02:32:08.769Z,101253.84
2024-01-24T02:34:37.200Z,101262.53
2024-01-24T02:37:06.066Z,101260.78
2024-01-24T02:39:34.899Z,101245.84
2024-01-24T02:42:05.354Z,101239.69
2024-01-24T02:44:34.035Z,101262.44
2024-01-24T02:47:04.522Z,101259.81
2024-01-24T02:49:33.364Z,101274.69
2024-01-24T02:52:03.148Z,101262.28
2024-01-24T02:54:32.500Z,101253.50
2024-01-24T02:57:03.314Z,101264.03
2024-01-24T02:59:33.461Z,101245.63
2024-01-24T03:02:03.423Z,101227.19
2024-01-24T03:04:32.187Z,101246.34
2024-01-24T03:07:00.744Z,101232.19
2024-01-24T03:09:31.086Z,101218.06
2024-01-24T03:11:59.836Z,101231.16
2024-01-24T03:14:28.465Z,101225.78
2024-01-24T03:16:59.114Z,101227.50
2024-01-24T03:19:27.862Z,101229.13
2024-01-24T03:21:56.747Z,101223.75
2024-01-24T03:24:25.253Z,101230.72
2024-01-24T03:26:53.869Z,101227.19
2024-01-24T03:29:22.623Z,101228.09
2024-01-24T03:31:51.259Z,101234.13
2024-01-24T03:34:21.617Z,101242.84
2024-01-24T03:36:50.072Z,101265.50
2024-01-24T03:39:18.939Z,101243.47
2024-01-24T03:41:47.575Z,101252.09
2024-01-24T03:44:16.368Z,101258.19
2024-01-24T03:46:45.163Z,101265.16
2024-01-24T03:49:13.880Z,101262.44
2024-01-24T03:51:44.295Z,101269.44
2024-01-24T03:54:13.061Z,101250.03
2024-01-24T03:56:42.403Z,101266.69
2024-01-24T03:59:11.165Z,101264.03
2024-01-24T04:01:39.881Z,101249.09
2024-01-24T04:04:08.639Z,101235.09
2024-01-24T04:06:38.428Z,101231.56
2024-01-24T04:09:08.197Z,101220.16
2024-01-24T04:11:38.953Z,101201.72
2024-01-24T04:14:09.055Z,101218.41
2024-01-24T04:16:41.570Z,101193.84
2024-01-24T04:19:10.469Z,101196.41
2024-01-24T04:21:43.840Z,101191.16
2024-01-24T04:24:14.131Z,101231.47
2024-01-24T04:26:43.381Z,101186.66
2024-01-24T04:29:13.842Z,101205.00
2024-01-24T04:31:43.641Z,101176.06
2024-01-24T04:34:12.393Z,101158.41
2024-01-24T04:36:41.103Z,101191.72
2024-01-24T04:39:09.862Z,101156.56
2024-01-24T04:41:41.321Z,101153.06
2024-01-24T04:44:11.194Z,101165.31
2024-01-24T04:46:39.840Z,101170.50
2024-01-24T04:49:16.094Z,101170.50
2024-01-24T04:51:51.424Z,101172.34
2024-01-24T04:54:20.086Z,101180.09
2024-01-24T04:56:50.915Z,101177.53
2024-01-24T04:59:20.144Z,101188.84
2024-01-24T05:01:49.799Z,101188.75
2024-01-24T05:04:18.623Z,101194.00
2024-01-24T05:06:47.593Z,101188.66
2024-01-24T05:09:16.515Z,101186.03
2024-01-24T05:11:44.910Z,101196.56
2024-01-24T05:14:15.000Z,101184.13
2024-01-24T05:16:44.267Z,101193.63
2024-01-24T05:19:13.106Z,101163.75
2024-01-24T05:21:43.107Z,101164.56
2024-01-24T05:24:12.669Z,101173.34
2024-01-24T05:26:41.442Z,101162.75
2024-01-24T05:29:10.277Z,101200.50
2024-01-24T05:31:40.044Z,101173.19
2024-01-24T05:34:09.477Z,101152.97
2024-01-24T05:36:38.666Z,101152.13
2024-01-24T05:39:08.845Z,101176.81
2024-01-24T05:41:37.907Z,101166.28
2024-01-24T05:44:06.632Z,101179.47
2024-01-24T05:46:35.063Z,101212.81
2024-01-24T05:49:05.109Z,101173.28
2024-01-24T05:51:33.979Z,101187.34
2024-01-24T05:54:02.434Z,101164.50
2024-01-24T05:56:33.036Z,101182.09
2024-01-24T05:59:01.930Z,101188.22
2024-01-24T06:01:30.746Z,101166.28
2024-01-24T06:03:59.605Z,101154.03
2024-01-24T06:06:29.581Z,101134.75
2024-01-24T06:08:58.352Z,101149.72
2024-01-24T06:11:26.945Z,101132.16
2024-01-24T06:13:55.650Z,101143.59
2024-01-24T06:16:24.259Z,101140.97
2024-01-24T06:18:52.940Z,101149.72
2024-01-24T06:21:21.911Z,101141.75
2024-01-24T06:23:51.947Z,101168.09
2024-01-24T06:26:20.264Z,101176.00
2024-01-24T06:28:48.972Z,101169.84
2024-01-24T06:31:18.168Z,101171.47
2024-01-24T06:33:48.058Z,101157.41
2024-01-24T06:36:16.799Z,101149.41
2024-01-24T06:38:46.227Z,101162.59
2024-01-24T06:41:16.395Z,101163.56
2024-01-24T06:43:45.041Z,101144.22
2024-01-24T06:46:13.723Z,101118.72
2024-01-24T06:48:42.658Z,101158.16
2024-01-24T06:51:13.451Z,101137.91
2024-01-24T06:53:42.283Z,101122.88
2024-01-24T06:56:10.897Z,101152.72
2024-01-24T06:58:41.772Z,101143.88
2024-01-24T07:01:10.553Z,101149.13
2024-01-24T07:03:39.162Z,101169.28
2024-01-24T07:06:09.175Z,101165.72
2024-01-24T07:08:41.697Z,101128.00
2024-01-24T07:11:10.824Z,101178.94
2024-01-24T07:13:40.937Z,101167.47
2024-01-24T07:16:09.627Z,101177.03
2024-01-24T07:18:38.851Z,101193.72
2024-01-24T07:21:09.050Z,101215.59
2024-01-24T07:23:37.908Z,101191.91
2024-01-24T07:26:06.558Z,101165.63
2024-01-24T07:28:36.449Z,101202.59
2024-01-24T07:31:07.132Z,101233.41
2024-01-24T07:33:35.886Z,101212.34
2024-01-24T07:36:06.490Z,101208.81
2024-01-24T07:38:35.030Z,101196.56
2024-01-24T07:41:03.743Z,101190.44
2024-01-24T07:43:33.823Z,101195.69
2024-01-24T07:46:06.846Z,101220.22
2024-01-24T07:48:35.919Z,101218.47
2024-01-24T07:51:05.726Z,101204.47
2024-01-24T07:53:35.017Z,101217.63
2024-01-24T07:56:11.326Z,101218.41
2024-01-24T07:58:49.050Z,101214.97
2024-01-24T08:01:19.402Z,101221.88
2024-01-24T08:03:49.965Z,101233.19
2024-01-24T08:06:20.186Z,101233.88
2024-01-24T08:08:49.276Z,101228.56
2024-01-24T08:11:19.154Z,101223.28
2024-01-24T08:13:47.874Z,101241.94
2024-01-24T08:16:19.989Z,101244.91
2024-01-24T08:18:49.395Z,101257.69
2024-01-24T08:21:19.148Z,101249.41
2024-01-24T08:23:51.450Z,101232.25
2024-01-24T08:26:20.650Z,101254.44
2024-01-24T08:28:50.045Z,101271.34
2024-01-24T08:31:20.197Z,101268.84
2024-01-24T08:33:51.481Z,101261.03
2024-01-24T08:36:21.639Z,101273.34
2024-01-24T08:38:50.988Z,101282.06
2024-01-24T08:41:19.738Z,101286.41
2024-01-24T08:43:48.402Z,101289.88
2024-01-24T08:46:17.088Z,101306.47
2024-01-24T08:48:46.890Z,101304.59
2024-01-24T08:51:15.711Z,101307.84
2024-01-24T08:53:44.479Z,101298.81
2024-01-24T08:56:14.958Z,101310.00
2024-01-24T08:59:09.081Z,101313.25
2024-01-24T09:01:37.964Z,101308.34
2024-01-24T09:04:08.493Z,101307.88
2024-01-24T09:06:37.496Z,101306.81
2024-01-24T09:09:07.885Z,101312.81
2024-01-24T09:11:42.143Z,101332.75
2024-01-24T09:14:19.189Z,101314.84
2024-01-24T09:16:48.022Z,101314.63
2024-01-24T09:19:18.222Z,101306.50
2024-01-24T09:21:47.162Z,101315.94
2024-01-24T09:24:16.121Z,101304.91
2024-01-24T09:26:44.828Z,101294.75
2024-01-24T09:29:13.925Z,101304.44
2024-01-24T09:31:47.105Z,101305.31
2024-01-24T09:34:18.066Z,101289.38
2024-01-24T09:36:46.965Z,101303.50
2024-01-24T09:39:15.912Z,101292.97
2024-01-24T09:41:46.709Z,101312.41
2024-01-24T09:44:18.576Z,101317.75
2024-01-24T09:46:49.851Z,101319.69
2024-01-24T09:49:20.105Z,101328.56
2024-01-24T09:51:50.554Z,101330.41
2024-01-24T09:54:19.945Z,101344.47
2024-01-24T09:56:50.123Z,101357.66
2024-01-24T09:59:19.280Z,101354.94
2024-01-24T10:01:48.458Z,101351.34
2024-01-24T10:04:17.165Z,101359.09
2024-01-24T10:06:48.673Z,101363.41
2024-01-24T10:09:17.680Z,101358.00
2024-01-24T10:11:46.297Z,101368.44
2024-01-24T10:14:14.772Z,101379.66
2024-01-24T10:16:44.435Z,101385.69
2024-01-24T10:19:13.857Z,101383.81
2024-01-24T10:21:43.433Z,101381.13
2024-01-24T10:24:13.248Z,101374.97
2024-01-24T10:26:41.770Z,101384.59
2024-01-24T10:29:11.068Z,101360.66
2024-01-24T10:31:39.984Z,101377.81
2024-01-24T10:34:09.069Z,101365.06
2024-01-24T10:36:43.777Z,101359.66
2024-01-24T10:39:16.517Z,101395.03
2024-01-24T10:41:50.145Z,101398.69
2024-01-24T10:44:21.140Z,101401.22
2024-01-24T10:46:51.260Z,101422.31
2024-01-24T10:49:22.701Z,101439.09
2024-01-24T10:51:51.952Z,101447.09
2024-01-24T10:54:23.484Z,101440.09
2024-01-24T10:56:52.960Z,101445.41
2024-01-24T10:59:22.312Z,101440.22
2024-01-24T11:01:51.065Z,101458.94
2024-01-24T11:04:23.907Z,101455.56
2024-01-24T11:07:06.995Z,101455.63
2024-01-24T11:09:55.027Z,101442.41
2024-01-24T11:12:24.393Z,101445.91
2024-01-24T11:14:53.680Z,101436.28
2024-01-24T11:17:23.274Z,101422.38
2024-01-24T11:19:52.018Z,101422.47
2024-01-24T11:22:30.363Z,101415.44
2024-01-24T11:25:01.797Z,101413.63
2024-01-24T11:27:34.346Z,101439.00
2024-01-24T11:30:19.739Z,101436.28
2024-01-24T11:33:02.628Z,101424.78
2024-01-24T11:35:37.153Z,101424.72
2024-01-24T11:38:16.082Z,101429.16
2024-01-24T11:41:03.257Z,101423.88
2024-01-24T11:43:36.497Z,101419.56
2024-01-24T11:46:09.252Z,101420.47
2024-01-24T11:48:40.565Z,101414.38
2024-01-24T11:51:12.295Z,101429.47
2024-01-24T11:53:41.087Z,101424.28
2024-01-24T11:56:15.934Z,101426.16
2024-01-24T11:58:44.973Z,101435.97
2024-01-24T12:01:14.509Z,101451.91
2024-01-24T12:03:49.678Z,101466.94
2024-01-24T12:06:20.681Z,101465.19
2024-01-24T12:08:50.969Z,101449.44
2024-01-24T12:11:22.244Z,101463.63
2024-01-24T12:13:51.319Z,101460.78
2024-01-24T12:16:27.277Z,101464.81
2024-01-24T12:18:56.936Z,101465.34
2024-01-24T12:21:28.450Z,101488.09
2024-01-24T12:23:57.680Z,101468.72
2024-01-24T12:26:27.906Z,101479.97
2024-01-24T12:28:56.922Z,101490.28
2024-01-24T12:31:30.702Z,101482.31
2024-01-24T12:33:59.798Z,101477.66
2024-01-24T12:36:29.395Z,101499.56
2024-01-24T12:38:59.286Z,101495.13
2024-01-24T12:41:29.485Z,101514.72
2024-01-24T12:43:58.858Z,101504.25
2024-01-24T12:46:28.354Z,101502.91
2024-01-24T12:49:00.435Z,101531.91
2024-01-24T12:51:29.279Z,101532.34
2024-01-24T12:53:58.242Z,101524.44
2024-01-24T12:56:28.531Z,101525.66
2024-01-24T12:58:57.219Z,101521.59
2024-01-24T13:01:25.859Z,101520.66
2024-01-24T13:03:54.914Z,101529.91
2024-01-24T13:06:23.633Z,101510.13
2024-01-24T13:08:53.050Z,101509.38
2024-01-24T13:11:21.802Z,101531.00
2024-01-24T13:13:51.735Z,101538.03
2024-01-24T13:16:20.622Z,101525.91
2024-01-24T13:18:49.324Z,101523.63
2024-01-24T13:21:19.019Z,101543.56
2024-01-24T13:23:47.695Z,101544.03
2024-01-24T13:26:16.501Z,101546.53
2024-01-24T13:28:45.245Z,101549.44
2024-01-24T13:31:15.590Z,101556.28
2024-01-24T13:33:46.395Z,101555.06
2024-01-24T13:36:17.347Z,101557.28
2024-01-24T13:38:46.162Z,101555.69
2024-01-24T13:41:15.710Z,101556.72
2024-01-24T13:43:44.398Z,101553.75
2024-01-24T13:46:14.695Z,101553.41
2024-01-24T13:48:43.460Z,101572.31
2024-01-24T13:51:12.287Z,101563.53
2024-01-24T13:53:40.735Z,101576.25
2024-01-24T13:56:09.511Z,101576.75
2024-01-24T13:58:38.845Z,101580.03
2024-01-24T14:01:07.689Z,101584.78
2024-01-24T14:03:39.808Z,101586.09
2024-01-24T14:06:26.361Z,101592.00
2024-01-24T14:08:55.303Z,101594.31
2024-01-24T14:11:26.539Z,101585.00
2024-01-24T14:13:55.295Z,101595.53
2024-01-24T14:16:24.375Z,101592.44
2024-01-24T14:18:55.460Z,101618.19
2024-01-24T14:21:24.047Z,101609.47
2024-01-24T14:23:52.656Z,101615.00
2024-01-24T14:26:21.476Z,101615.28
2024-01-24T14:28:49.917Z,101618.75
2024-01-24T14:31:18.689Z,101629.31
2024-01-24T14:33:47.511Z,101632.13
2024-01-24T14:36:17.777Z,101634.38
2024-01-24T14:38:46.387Z,101633.25
2024-01-24T14:41:15.023Z,101646.88
2024-01-24T14:43:43.674Z,101646.94
2024-01-24T14:46:12.308Z,101650.63
2024-01-24T14:48:40.962Z,101656.94
2024-01-24T14:51:09.672Z,101651.91
2024-01-24T14:53:39.623Z,101663.56
2024-01-24T14:56:08.471Z,101666.50
2024-01-24T14:58:37.100Z,101661.50
2024-01-24T15:01:06.090Z,101659.09
2024-01-24T15:03:34.812Z,101661.16
2024-01-24T15:06:04.120Z,101668.44
2024-01-24T15:08:32.754Z,101675.72
2024-01-24T15:11:03.844Z,101668.94
2024-01-24T15:13:32.252Z,101681.41
2024-01-24T15:16:02.113Z,101690.41
2024-01-24T15:19:14.704Z,101681.78
2024-01-24T15:21:43.568Z,101690.72
2024-01-24T15:24:11.484Z,101693.44
2024-01-24T15:26:41.589Z,101701.44
2024-01-24T15:29:10.400Z,101707.63
2024-01-24T15:31:39.033Z,101692.72
2024-01-24T15:34:08.857Z,101702.47
2024-01-24T15:36:38.717Z,101714.88
2024-01-24T15:39:12.994Z,101717.63
2024-01-24T15:41:43.298Z,101701.91
2024-01-24T15:44:12.314Z,101724.81
2024-01-24T15:46:41.474Z,101736.31
2024-01-24T15:49:12.651Z,101742.53
2024-01-24T15:51:41.425Z,101744.41
2024-01-24T15:54:10.123Z,101744.50
2024-01-24T15:56:38.473Z,101748.13
2024-01-24T15:59:08.796Z,101749.13
2024-01-24T16:01:37.562Z,101748.31
2024-01-24T16:04:06.361Z,101756.28
2024-01-24T16:06:34.801Z,101760.78
2024-01-24T16:09:03.559Z,101759.13
2024-01-24T16:11:32.351Z,101765.34
2024-01-24T16:14:01.115Z,101755.78
2024-01-24T16:16:31.186Z,101769.06
2024-01-24T16:19:00.003Z,101761.22
2024-01-24T16:21:28.567Z,101775.28
2024-01-24T16:23:57.304Z,101786.72
2024-01-24T16:26:25.966Z,101787.66
2024-01-24T16:28:54.573Z,101773.69
2024-01-24T16:31:23.186Z,101778.13
2024-01-24T16:33:53.288Z,101791.28
2024-01-24T16:36:22.001Z,101794.84
2024-01-24T16:38:52.024Z,101790.50
2024-01-24T16:41:21.058Z,101789.66
2024-01-24T16:43:51.507Z,101796.69
2024-01-24T16:46:20.357Z,101800.25
2024-01-24T16:48:49.147Z,101804.66
2024-01-24T16:51:19.850Z,101809.06
2024-01-24T16:53:48.674Z,101809.09
2024-01-24T16:56:17.324Z,101817.88
2024-01-24T16:58:45.936Z,101823.16
2024-01-24T17:01:14.812Z,101830.16
2024-01-24T17:03:43.522Z,101835.41
2024-01-24T17:06:12.187Z,101829.28
2024-01-24T17:08:42.260Z,101837.19
2024-01-24T17:11:11.151Z,101850.31
2024-01-24T17:13:39.847Z,101842.50
2024-01-24T17:16:08.679Z,101848.66
2024-01-24T17:18:39.156Z,101841.72
2024-01-24T17:21:08.206Z,101847.81
2024-01-24T17:23:36.956Z,101861.88
2024-01-24T17:26:07.106Z,101841.75
2024-01-24T17:28:36.174Z,101849.66
2024-01-24T17:31:05.158Z,101860.16
2024-01-24T17:33:33.642Z,101860.16
2024-01-24T17:36:02.774Z,101861.94
2024-01-24T17:38:31.471Z,101866.31
2024-01-24T17:41:01.715Z,101856.69
2024-01-24T17:43:32.219Z,101852.34
2024-01-24T17:46:00.930Z,101856.75
2024-01-24T17:48:29.661Z,101876.88
2024-01-24T17:50:58.795Z,101886.50
2024-01-24T17:53:27.548Z,101887.41
2024-01-24T17:55:56.393Z,101887.44
2024-01-24T17:58:25.258Z,101910.22
2024-01-24T18:00:55.384Z,101901.50
2024-01-24T18:03:24.275Z,101897.09
2024-01-24T18:05:53.183Z,101900.59
2024-01-24T18:08:23.135Z,101898.00
2024-01-24T18:10:51.996Z,101902.38
2024-01-24T18:13:20.611Z,101912.00
2024-01-24T18:15:49.461Z,101907.63
2024-01-24T18:18:19.676Z,101900.66
2024-01-24T18:20:48.325Z,101904.16
2024-01-24T18:23:16.934Z,101924.25
2024-01-24T18:25:45.845Z,101918.16
2024-01-24T18:28:14.499Z,101915.50
2024-01-24T18:30:43.142Z,101919.91
2024-01-24T18:33:13.520Z,101920.78
2024-01-24T18:35:44.115Z,101921.63
2024-01-24T18:38:13.108Z,101919.03
2024-01-24T18:40:41.772Z,101936.50
2024-01-24T18:43:10.478Z,101932.13
2024-01-24T18:45:39.342Z,101937.34
2024-01-24T18:48:09.779Z,101933.88
2024-01-24T18:50:39.099Z,101937.34
2024-01-24T18:53:10.065Z,101935.63
2024-01-24T18:55:39.117Z,101945.19
2024-01-24T18:58:07.881Z,101932.97
2024-01-24T19:00:37.235Z,101934.72
2024-01-24T19:03:06.712Z,101938.19
2024-01-24T19:05:38.410Z,101937.31
2024-01-24T19:08:11.592Z,101940.78
2024-01-24T19:10:40.459Z,101943.41
2024-01-24T19:13:09.421Z,101949.50
2024-01-24T19:15:38.333Z,101949.47
2024-01-24T19:18:14.025Z,101944.25
2024-01-24T19:20:45.960Z,101947.75
2024-01-24T19:23:16.027Z,101951.19
2024-01-24T19:25:44.672Z,101947.75
2024-01-24T19:28:13.527Z,101946.88
2024-01-24T19:30:41.925Z,101946.88
2024-01-24T19:33:10.629Z,101939.03
2024-01-24T19:35:40.389Z,101940.78
2024-01-24T19:38:09.072Z,101943.41
2024-01-24T19:40:39.107Z,101942.53
2024-01-24T19:43:07.990Z,101943.44
2024-01-24T19:45:37.095Z,101952.13
2024-01-24T19:48:06.353Z,101939.94
2024-01-24T19:50:34.958Z,101932.94
2024-01-24T19:53:03.623Z,101928.59
2024-01-24T19:55:32.266Z,101936.44
2024-01-24T19:58:02.299Z,101922.50
2024-01-24T20:00:30.971Z,101921.63
2024-01-24T20:02:59.640Z,101905.91
2024-01-24T20:05:28.144Z,101914.66
2024-01-24T20:07:56.811Z,101905.91
2024-01-24T20:10:25.718Z,101904.19
2024-01-24T20:12:54.449Z,101915.56
2024-01-24T20:15:25.304Z,101918.16
2024-01-24T20:17:54.794Z,101919.03
2024-01-24T20:20:24.303Z,101903.28
2024-01-24T20:22:53.013Z,101904.16
2024-01-24T20:25:22.130Z,101893.69
2024-01-24T20:27:52.605Z,101903.28
2024-01-24T20:30:21.281Z,101903.28
2024-01-24T20:32:57.586Z,101906.78
2024-01-24T20:35:32.788Z,101907.66
2024-01-24T20:38:01.772Z,101895.41
2024-01-24T20:40:30.431Z,101902.44
2024-01-24T20:42:59.119Z,101893.69
2024-01-24T20:45:28.779Z,101901.53
2024-01-24T20:48:01.357Z,101907.66
2024-01-24T20:50:36.174Z,101904.16
2024-01-24T20:53:06.105Z,101900.66
2024-01-24T20:55:35.054Z,101902.44
2024-01-24T20:58:03.720Z,101896.31
2024-01-24T21:00:32.628Z,101899.81
2024-01-24T21:03:02.966Z,101882.31
2024-01-24T21:05:31.846Z,101881.47
2024-01-24T21:08:01.118Z,101876.22
2024-01-24T21:10:29.969Z,101879.72
2024-01-24T21:12:58.770Z,101886.72
2024-01-24T21:15:27.425Z,101884.97
2024-01-24T21:17:56.085Z,101890.19
2024-01-24T21:20:26.345Z,101891.97
2024-01-24T21:22:55.090Z,101902.44
2024-01-24T21:25:24.118Z,101904.19
2024-01-24T21:27:52.812Z,101891.97
2024-01-24T21:30:21.594Z,101895.44
2024-01-24T21:32:50.234Z,101893.72
2024-01-24T21:35:19.193Z,101902.47
2024-01-24T21:37:49.963Z,101911.16
2024-01-24T21:40:18.717Z,101918.16
2024-01-24T21:42:47.489Z,101918.16
2024-01-24T21:45:16.153Z,101919.91
2024-01-24T21:47:44.739Z,101919.91
2024-01-24T21:50:14.094Z,101926.91
2024-01-24T21:52:42.762Z,101916.41
2024-01-24T21:55:13.094Z,101916.41
2024-01-24T21:57:43.297Z,101914.66
2024-01-24T22:00:13.551Z,101932.13
2024-01-24T22:02:42.190Z,101939.97
2024-01-24T22:05:11.005Z,101942.59
2024-01-24T22:07:39.770Z,101940.84
2024-01-24T22:10:09.831Z,101926.00
2024-01-24T22:12:39.991Z,101933.84
2024-01-24T22:15:09.248Z,101927.75
2024-01-24T22:17:38.053Z,101926.88
2024-01-24T22:20:09.046Z,101932.13
2024-01-24T22:22:38.671Z,101937.34
2024-01-24T22:25:09.228Z,101936.47
2024-01-24T22:27:39.413Z,101940.84
2024-01-24T22:30:09.252Z,101938.22
2024-01-24T22:32:37.647Z,101937.34
2024-01-24T22:35:07.789Z,101934.72
2024-01-24T22:37:36.499Z,101938.22
2024-01-24T22:40:05.974Z,101931.25
2024-01-24T22:42:34.606Z,101927.75
2024-01-24T22:45:04.963Z,101936.47
2024-01-24T22:47:33.337Z,101930.38
2024-01-24T22:50:02.201Z,101930.38
2024-01-24T22:52:31.122Z,101919.91
2024-01-24T22:54:59.807Z,101938.25
2024-01-24T22:57:28.478Z,101931.25
2024-01-24T23:00:37.175Z,101926.88
2024-01-24T23:03:15.196Z,101932.13
2024-01-24T23:06:11.297Z,101939.09
2024-01-24T23:08:43.173Z,101931.22
2024-01-24T23:11:13.236Z,101942.59
2024-01-24T23:13:42.789Z,101941.75
2024-01-24T23:16:12.852Z,101939.09
2024-01-24T23:18:41.622Z,101939.97
2024-01-24T23:21:10.248Z,101946.09
2024-01-24T23:23:41.248Z,101946.09
2024-01-24T23:26:09.623Z,101943.47
2024-01-24T23:28:38.280Z,101947.84
2024-01-24T23:31:07.100Z,101937.38
2024-01-24T23:33:37.509Z,101939.13
2024-01-24T23:36:07.581Z,101938.25
2024-01-24T23:38:36.260Z,101946.09
2024-01-24T23:41:04.950Z,101944.34
2024-01-24T23:43:33.579Z,101940.00
2024-01-24T23:46:01.919Z,101940.84
2024-01-24T23:48:30.514Z,101938.25
2024-01-24T23:51:00.555Z,101937.34
2024-01-24T23:53:29.282Z,101929.50
2024-01-24T23:55:57.884Z,101930.38
2024-01-24T23:58:26.536Z,101919.88
